createdAt,value
2022-08-20T00:12:09.547Z,99684.92
2022-08-20T00:14:40.027Z,99690.15
2022-08-20T00:17:08.619Z,99686.10
2022-08-20T00:20:12.782Z,99679.82
2022-08-20T00:22:59.152Z,99684.59
2022-08-20T00:25:29.543Z,99679.86
2022-08-20T00:27:58.899Z,99692.34
2022-08-20T00:30:27.768Z,99704.17
2022-08-20T00:33:01.147Z,99706.88
2022-08-20T00:35:34.383Z,99712.77
2022-08-20T00:56:52.734Z,99711.76
2022-08-20T00:59:41.883Z,99719.44
2022-08-20T01:02:17.773Z,99723.83
2022-08-20T01:07:35.034Z,99738.70
2022-08-20T01:10:13.235Z,99741.64
2022-08-20T01:12:46.366Z,99744.83
2022-08-20T01:15:19.126Z,99742.25
2022-08-20T01:17:54.634Z,99738.10
2022-08-20T01:20:34.313Z,99740.77
2022-08-20T01:23:31.317Z,99738.04
2022-08-20T01:26:12.251Z,99735.15
2022-08-20T01:29:07.688Z,99727.35
2022-08-20T01:31:39.106Z,99719.13
2022-08-20T01:34:14.504Z,99707.72
2022-08-20T01:36:48.455Z,99699.13
2022-08-20T01:39:53.572Z,99692.35
2022-08-20T01:42:58.617Z,99687.65
2022-08-20T01:45:30.442Z,99684.44
2022-08-20T01:47:59.799Z,99688.04
2022-08-20T01:50:32.792Z,99695.90
2022-08-20T01:56:05.654Z,99706.73
2022-08-20T01:58:38.065Z,99704.60
2022-08-20T02:01:06.763Z,99702.58
2022-08-20T02:03:39.752Z,99696.88
2022-08-20T02:06:11.210Z,99699.65
2022-08-20T02:08:39.509Z,99695.55
2022-08-20T02:11:08.946Z,99694.27
2022-08-20T02:13:38.407Z,99695.30
2022-08-20T02:16:07.555Z,99696.92
2022-08-20T02:18:36.430Z,99699.88
2022-08-20T02:21:05.879Z,99696.88
2022-08-20T02:23:34.259Z,99692.94
2022-08-20T02:26:02.708Z,99682.40
2022-08-20T02:28:31.054Z,99670.39
2022-08-20T02:31:01.659Z,99667.60
2022-08-20T02:33:29.972Z,99661.38
2022-08-20T02:35:58.310Z,99665.84
2022-08-20T02:38:26.607Z,99662.88
2022-08-20T02:40:55.540Z,99670.42
2022-08-20T02:43:23.923Z,99663.41
2022-08-20T02:45:52.387Z,99658.38
2022-08-20T02:48:23.103Z,99655.39
2022-08-20T02:50:59.316Z,99650.84
2022-08-20T02:53:31.722Z,99646.45
2022-08-20T02:56:01.043Z,99635.06
2022-08-20T02:58:29.615Z,99626.62
2022-08-20T03:00:58.258Z,99633.23
2022-08-20T03:03:26.824Z,99638.88
2022-08-20T03:05:58.783Z,99644.27
2022-08-20T03:08:29.465Z,99652.29
2022-08-20T03:10:58.246Z,99658.68
2022-08-20T03:13:27.245Z,99671.42
2022-08-20T03:16:00.415Z,99685.67
2022-08-20T03:18:47.175Z,99690.39
2022-08-20T03:21:15.712Z,99684.23
2022-08-20T03:23:44.414Z,99697.50
2022-08-20T03:26:14.012Z,99704.88
2022-08-20T03:28:43.401Z,99705.54
2022-08-20T03:31:12.527Z,99694.31
2022-08-20T03:33:48.858Z,99691.90
2022-08-20T03:36:27.839Z,99697.88
2022-08-20T03:39:01.277Z,99689.65
2022-08-20T03:44:58.502Z,99674.81
2022-08-20T03:47:31.519Z,99680.88
2022-08-20T03:50:01.787Z,99681.23
2022-08-20T03:52:30.241Z,99684.69
2022-08-20T03:54:58.716Z,99682.11
2022-08-20T03:57:28.604Z,99681.58
2022-08-20T03:59:58.443Z,99685.67
2022-08-20T04:02:27.357Z,99689.86
2022-08-20T04:04:55.732Z,99690.48
2022-08-20T04:07:25.997Z,99691.22
2022-08-20T04:09:56.435Z,99685.64
2022-08-20T04:12:26.014Z,99684.50
2022-08-20T04:14:56.167Z,99687.65
2022-08-20T04:17:25.132Z,99699.25
2022-08-20T04:19:53.451Z,99705.85
2022-08-20T04:22:21.843Z,99711.34
2022-08-20T04:24:50.751Z,99715.20
2022-08-20T04:27:31.020Z,99722.79
2022-08-20T04:30:03.497Z,99722.02
2022-08-20T04:32:31.881Z,99713.29
2022-08-20T04:35:00.887Z,99702.23
2022-08-20T04:37:30.296Z,99701.34
2022-08-20T04:43:00.641Z,99711.27
2022-08-20T04:45:29.130Z,99723.58
2022-08-20T04:47:57.840Z,99727.55
2022-08-20T04:50:26.356Z,99717.17
2022-08-20T04:52:54.661Z,99702.91
2022-08-20T04:55:22.935Z,99696.15
2022-08-20T04:57:52.445Z,99701.08
2022-08-20T05:00:21.170Z,99714.09
2022-08-20T05:02:49.511Z,99721.10
2022-08-20T05:05:17.880Z,99730.13
2022-08-20T05:07:46.267Z,99730.34
2022-08-20T05:10:18.728Z,99721.65
2022-08-20T05:12:56.648Z,99717.52
2022-08-20T05:15:26.120Z,99718.72
2022-08-20T05:18:00.849Z,99724.41
2022-08-20T05:20:32.665Z,99721.89
2022-08-20T05:23:02.275Z,99726.95
2022-08-20T05:25:31.880Z,99728.30
2022-08-20T05:28:18.165Z,99723.05
2022-08-20T05:30:49.464Z,99715.63
2022-08-20T05:33:21.297Z,99716.85
2022-08-20T05:35:52.835Z,99717.71
2022-08-20T05:38:26.564Z,99712.55
2022-08-20T05:40:55.206Z,99706.15
2022-08-20T05:43:24.236Z,99706.67
2022-08-20T05:45:56.493Z,99709.98
2022-08-20T05:48:25.825Z,99706.91
2022-08-20T05:51:25.440Z,99705.39
2022-08-20T06:04:09.030Z,99714.77
2022-08-20T06:06:45.749Z,99718.01
2022-08-20T06:09:31.844Z,99719.54
2022-08-20T06:12:06.264Z,99717.21
2022-08-20T06:31:32.896Z,99733.19
2022-08-20T06:34:02.022Z,99731.67
2022-08-20T06:36:30.550Z,99734.15
2022-08-20T06:39:01.432Z,99729.99
2022-08-20T06:41:36.024Z,99728.31
2022-08-20T06:44:07.679Z,99733.63
2022-08-20T06:46:37.854Z,99739.52
2022-08-20T06:49:08.687Z,99735.99
2022-08-20T06:51:41.431Z,99738.91
2022-08-20T06:54:35.181Z,99735.41
2022-08-20T07:00:17.069Z,99738.69
2022-08-20T07:02:48.922Z,99735.22
2022-08-20T07:05:17.886Z,99732.54
2022-08-20T07:07:51.194Z,99733.71
2022-08-20T07:10:23.371Z,99733.23
2022-08-20T07:12:54.907Z,99736.06
2022-08-20T07:15:28.384Z,99738.17
2022-08-20T07:18:01.901Z,99738.38
2022-08-20T07:20:33.574Z,99740.32
2022-08-20T07:28:15.602Z,99736.74
2022-08-20T07:33:37.594Z,99740.71
2022-08-20T07:36:11.718Z,99741.84
2022-08-20T07:39:09.799Z,99742.71
2022-08-20T07:41:38.383Z,99741.69
2022-08-20T07:44:06.807Z,99737.48
2022-08-20T07:46:35.509Z,99738.36
2022-08-20T07:49:09.938Z,99739.09
2022-08-20T07:51:38.496Z,99744.17
2022-08-20T07:54:06.914Z,99749.10
2022-08-20T07:56:35.613Z,99754.23
2022-08-20T07:59:06.331Z,99761.59
2022-08-20T08:01:35.560Z,99762.36
2022-08-20T08:04:04.709Z,99767.29
2022-08-20T08:06:33.285Z,99766.33
2022-08-20T08:09:13.150Z,99769.02
2022-08-20T08:11:50.558Z,99773.42
2022-08-20T08:14:26.754Z,99772.44
2022-08-20T08:16:59.335Z,99772.00
2022-08-20T08:19:38.285Z,99766.84
2022-08-20T08:22:13.681Z,99753.23
2022-08-20T08:24:56.675Z,99757.05
2022-08-20T08:27:26.049Z,99758.84
2022-08-20T08:29:54.603Z,99761.20
2022-08-20T08:32:23.071Z,99762.34
2022-08-20T08:34:51.444Z,99759.02
2022-08-20T08:37:19.792Z,99763.11
2022-08-20T08:39:48.409Z,99762.05
2022-08-20T08:42:28.867Z,99760.33
2022-08-20T08:44:58.036Z,99758.82
2022-08-20T08:47:35.967Z,99756.44
2022-08-20T08:50:07.584Z,99750.33
2022-08-20T08:52:41.287Z,99754.79
2022-08-20T08:55:20.512Z,99764.11
2022-08-20T08:57:49.835Z,99764.34
2022-08-20T09:00:21.770Z,99761.34
2022-08-20T09:03:24.840Z,99765.75
2022-08-20T09:05:58.617Z,99766.05
2022-08-20T09:08:40.198Z,99760.39
2022-08-20T09:11:09.579Z,99751.44
2022-08-20T09:13:37.997Z,99751.42
2022-08-20T09:16:06.754Z,99753.94
2022-08-20T09:18:35.230Z,99757.98
2022-08-20T09:21:03.737Z,99758.52
2022-08-20T09:23:32.995Z,99754.89
2022-08-20T09:26:01.494Z,99758.42
2022-08-20T09:28:32.434Z,99759.32
2022-08-20T09:31:04.946Z,99755.64
2022-08-20T09:33:35.431Z,99754.54
2022-08-20T09:36:04.302Z,99754.25
2022-08-20T09:38:52.648Z,99748.58
2022-08-20T09:41:21.226Z,99748.16
2022-08-20T09:43:49.689Z,99748.70
2022-08-20T09:46:18.067Z,99753.30
2022-08-20T09:48:46.368Z,99755.67
2022-08-20T09:51:14.959Z,99759.65
2022-08-20T09:53:49.211Z,99757.59
2022-08-20T09:56:18.391Z,99758.38
2022-08-20T09:58:53.570Z,99755.48
2022-08-20T10:01:23.406Z,99756.30
2022-08-20T10:03:51.835Z,99757.80
2022-08-20T10:06:21.024Z,99759.89
2022-08-20T10:08:50.482Z,99759.23
2022-08-20T10:11:18.831Z,99753.77
2022-08-20T10:13:47.256Z,99757.27
2022-08-20T10:16:15.566Z,99755.21
2022-08-20T10:18:43.851Z,99758.38
2022-08-20T10:21:13.199Z,99762.02
2022-08-20T10:23:42.326Z,99765.66
2022-08-20T10:26:12.991Z,99765.40
2022-08-20T10:28:41.325Z,99765.36
2022-08-20T10:31:12.430Z,99764.67
2022-08-20T10:33:42.372Z,99767.75
2022-08-20T10:36:16.053Z,99769.17
2022-08-20T10:38:45.244Z,99765.02
2022-08-20T10:41:13.584Z,99766.11
2022-08-20T10:43:41.940Z,99763.40
2022-08-20T10:46:10.319Z,99771.86
2022-08-20T10:48:39.916Z,99776.68
2022-08-20T10:51:08.584Z,99779.19
2022-08-20T10:53:36.937Z,99778.55
2022-08-20T10:56:05.472Z,99781.27
2022-08-20T10:58:39.311Z,99784.05
2022-08-20T11:01:09.024Z,99781.06
2022-08-20T11:03:37.378Z,99777.34
2022-08-20T11:06:06.824Z,99774.90
2022-08-20T11:08:36.100Z,99776.40
2022-08-20T11:11:06.060Z,99774.83
2022-08-20T11:13:36.315Z,99776.09
2022-08-20T11:16:05.537Z,99772.38
2022-08-20T11:18:33.927Z,99774.36
2022-08-20T11:21:02.498Z,99770.41
2022-08-20T11:23:30.964Z,99766.52
2022-08-20T11:26:01.829Z,99764.58
2022-08-20T11:28:32.245Z,99757.16
2022-08-20T11:31:02.069Z,99758.01
2022-08-20T11:33:30.455Z,99765.23
2022-08-20T11:35:58.884Z,99767.97
2022-08-20T11:38:27.581Z,99767.23
2022-08-20T11:40:55.899Z,99764.80
2022-08-20T11:43:24.453Z,99762.78
2022-08-20T11:45:56.186Z,99756.77
2022-08-20T11:48:24.674Z,99754.92
2022-08-20T11:50:53.257Z,99752.33
2022-08-20T11:53:22.318Z,99753.80
2022-08-20T11:55:51.097Z,99751.55
2022-08-20T11:58:19.495Z,99750.81
2022-08-20T12:00:48.513Z,99747.93
2022-08-20T12:03:16.924Z,99746.73
2022-08-20T12:05:47.062Z,99747.97
2022-08-20T12:08:27.425Z,99744.83
2022-08-20T12:11:00.096Z,99739.21
2022-08-20T12:13:48.088Z,99737.27
2022-08-20T12:16:20.263Z,99741.80
2022-08-20T12:18:49.321Z,99736.16
2022-08-20T12:21:17.757Z,99736.88
2022-08-20T12:23:46.886Z,99736.48
2022-08-20T12:26:16.755Z,99734.48
2022-08-20T12:28:45.165Z,99734.38
2022-08-20T12:31:13.620Z,99730.19
2022-08-20T12:33:42.067Z,99734.27
2022-08-20T12:36:11.076Z,99727.80
2022-08-20T12:38:39.395Z,99721.52
2022-08-20T12:41:08.346Z,99718.17
2022-08-20T12:43:36.811Z,99718.44
2022-08-20T12:46:05.249Z,99711.93
2022-08-20T12:48:33.732Z,99714.48
2022-08-20T12:51:02.011Z,99711.92
2022-08-20T12:53:30.526Z,99711.73
2022-08-20T12:55:58.906Z,99708.06
2022-08-20T12:58:27.222Z,99701.13
2022-08-20T13:00:55.535Z,99697.70
2022-08-20T13:03:23.882Z,99696.71
2022-08-20T13:05:52.232Z,99695.77
2022-08-20T13:08:20.585Z,99696.45
2022-08-20T13:10:49.287Z,99690.08
2022-08-20T13:13:20.441Z,99691.64
2022-08-20T13:15:50.939Z,99691.70
2022-08-20T13:18:20.430Z,99693.94
2022-08-20T13:20:49.279Z,99692.52
2022-08-20T13:23:41.864Z,99690.90
2022-08-20T13:27:03.466Z,99687.09
2022-08-20T13:29:32.038Z,99685.41
2022-08-20T13:32:00.577Z,99684.79
2022-08-20T13:34:30.050Z,99687.23
2022-08-20T13:36:58.589Z,99681.52
2022-08-20T13:39:26.998Z,99678.63
2022-08-20T13:41:55.366Z,99677.29
2022-08-20T13:44:33.428Z,99669.48
2022-08-20T13:47:18.578Z,99673.23
2022-08-20T13:49:49.811Z,99674.86
2022-08-20T13:52:18.211Z,99680.00
2022-08-20T13:54:49.866Z,99680.92
2022-08-20T13:57:25.414Z,99680.11
2022-08-20T13:59:57.908Z,99684.61
2022-08-20T14:02:28.805Z,99676.45
2022-08-20T14:04:58.603Z,99673.41
2022-08-20T14:07:32.740Z,99673.65
2022-08-20T14:10:12.162Z,99680.30
2022-08-20T14:14:01.135Z,99689.44
2022-08-20T14:16:33.287Z,99699.39
2022-08-20T14:19:03.762Z,99703.66
2022-08-20T14:21:32.049Z,99705.08
2022-08-20T14:24:26.127Z,99707.66
2022-08-20T14:26:55.822Z,99699.84
2022-08-20T14:29:24.167Z,99702.48
2022-08-20T14:31:52.633Z,99708.36
2022-08-20T14:34:20.921Z,99710.66
2022-08-20T14:36:50.610Z,99716.86
2022-08-20T14:39:20.532Z,99720.98
2022-08-20T14:41:48.972Z,99724.41
2022-08-20T14:44:17.371Z,99725.89
2022-08-20T14:46:45.689Z,99724.95
2022-08-20T14:49:13.977Z,99723.88
2022-08-20T14:51:42.300Z,99725.30
2022-08-20T14:54:10.592Z,99726.30
2022-08-20T14:56:38.959Z,99729.34
2022-08-20T14:59:07.259Z,99745.46
2022-08-20T15:01:35.566Z,99774.17
2022-08-20T15:04:04.041Z,99774.27
2022-08-20T15:06:35.720Z,99767.91
2022-08-20T15:09:07.039Z,99749.92
2022-08-20T15:11:38.009Z,99753.40
2022-08-20T15:14:07.941Z,99748.58
2022-08-20T15:16:37.555Z,99749.68
2022-08-20T15:19:06.036Z,99751.86
2022-08-20T15:21:45.660Z,99750.27
2022-08-20T15:24:19.339Z,99752.35
2022-08-20T15:26:47.912Z,99755.34
2022-08-20T15:29:23.225Z,99756.58
2022-08-20T15:31:51.897Z,99763.75
2022-08-20T15:34:20.344Z,99771.36
2022-08-20T15:36:48.742Z,99773.42
2022-08-20T15:39:17.118Z,99778.02
2022-08-20T15:41:45.447Z,99789.14
2022-08-20T15:44:13.749Z,99803.06
2022-08-20T15:46:42.081Z,99813.77
2022-08-20T15:49:12.584Z,99801.11
2022-08-20T15:51:48.366Z,99783.47
2022-08-20T15:54:27.703Z,99777.59
2022-08-20T15:57:24.846Z,99780.59
2022-08-20T16:00:16.449Z,99778.70
2022-08-20T16:03:30.991Z,99767.80
2022-08-20T16:06:17.117Z,99766.87
2022-08-20T16:09:10.025Z,99769.11
2022-08-20T16:11:53.511Z,99768.30
2022-08-20T16:14:30.010Z,99766.80
2022-08-20T16:17:14.229Z,99767.29
2022-08-20T16:20:17.686Z,99768.15
2022-08-20T16:22:47.577Z,99773.42
2022-08-20T16:25:22.608Z,99779.13
2022-08-20T16:28:00.042Z,99777.31
2022-08-20T16:30:47.837Z,99788.84
2022-08-20T16:33:28.173Z,99796.88
2022-08-20T16:36:09.233Z,99794.13
2022-08-20T16:39:05.030Z,99796.44
2022-08-20T16:41:43.023Z,99790.11
2022-08-20T16:44:41.822Z,99782.25
2022-08-20T16:47:30.667Z,99795.17
2022-08-20T16:50:04.948Z,99803.11
2022-08-20T16:52:33.471Z,99808.73
2022-08-20T16:55:01.838Z,99825.83
2022-08-20T16:57:30.234Z,99841.77
2022-08-20T17:00:26.576Z,99856.23
2022-08-20T17:03:02.115Z,99853.23
2022-08-20T17:05:47.965Z,99836.59
2022-08-20T17:08:33.690Z,99827.80
2022-08-20T17:11:22.915Z,99830.33
2022-08-20T17:14:10.321Z,99831.20
2022-08-20T17:16:44.967Z,99838.15
2022-08-20T17:19:32.531Z,99838.70
2022-08-20T17:22:12.771Z,99833.02
2022-08-20T17:24:41.155Z,99836.45
2022-08-20T17:27:27.565Z,99834.27
2022-08-20T17:30:22.099Z,99834.82
2022-08-20T17:33:00.744Z,99840.27
2022-08-20T17:35:43.961Z,99838.20
2022-08-20T17:38:50.887Z,99840.95
2022-08-20T17:41:27.736Z,99839.80
2022-08-20T17:44:02.293Z,99841.02
2022-08-20T17:46:34.873Z,99842.25
2022-08-20T17:49:09.916Z,99850.23
2022-08-20T17:51:46.020Z,99846.09
2022-08-20T17:54:32.662Z,99843.58
2022-08-20T17:57:12.895Z,99840.50
2022-08-20T18:00:00.818Z,99841.02
2022-08-20T18:02:31.216Z,99838.31
2022-08-20T18:04:59.816Z,99837.13
2022-08-20T18:07:38.493Z,99828.71
2022-08-20T18:10:20.487Z,99832.95
2022-08-20T18:13:19.011Z,99842.59
2022-08-20T18:15:55.668Z,99855.89
2022-08-20T18:18:57.007Z,99864.05
2022-08-20T18:22:08.550Z,99864.51
2022-08-20T18:24:43.656Z,99871.45
2022-08-20T18:27:20.952Z,99872.15
2022-08-20T18:29:56.967Z,99873.48
2022-08-20T18:32:38.171Z,99874.88
2022-08-20T18:35:19.057Z,99872.02
2022-08-20T18:37:48.693Z,99874.77
2022-08-20T18:40:33.565Z,99874.77
2022-08-20T18:43:16.835Z,99876.08
2022-08-20T18:45:45.266Z,99877.67
2022-08-20T18:48:23.973Z,99878.48
2022-08-20T18:50:56.708Z,99879.65
2022-08-20T18:53:34.371Z,99881.33
2022-08-20T18:56:13.508Z,99887.17
2022-08-20T18:58:54.384Z,99886.08
2022-08-20T19:01:22.866Z,99889.14
2022-08-20T19:03:56.313Z,99890.59
2022-08-20T19:06:31.089Z,99887.71
2022-08-20T19:09:12.058Z,99888.23
2022-08-20T19:11:55.686Z,99888.54
2022-08-20T19:15:16.040Z,99889.84
2022-08-20T19:18:16.088Z,99893.04
2022-08-20T19:20:56.897Z,99887.20
2022-08-20T19:23:30.164Z,99884.86
2022-08-20T19:26:05.258Z,99884.35
2022-08-20T19:28:49.088Z,99886.34
2022-08-20T19:31:27.392Z,99889.70
2022-08-20T19:34:20.024Z,99887.92
2022-08-20T19:36:59.011Z,99885.65
2022-08-20T19:39:35.402Z,99885.48
2022-08-20T19:42:22.007Z,99883.06
2022-08-20T19:44:56.459Z,99881.42
2022-08-20T19:47:46.302Z,99882.08
2022-08-20T19:50:40.109Z,99883.19
2022-08-20T19:53:30.522Z,99877.56
2022-08-20T19:56:13.010Z,99879.45
2022-08-20T19:58:42.919Z,99872.23
2022-08-20T20:01:21.301Z,99870.47
2022-08-20T20:04:03.289Z,99864.54
2022-08-20T20:06:38.060Z,99856.58
2022-08-20T20:09:17.661Z,99859.87
2022-08-20T20:11:58.417Z,99850.41
2022-08-20T20:14:35.752Z,99846.28
2022-08-20T20:17:07.745Z,99843.17
2022-08-20T20:20:28.673Z,99843.13
2022-08-20T20:23:06.454Z,99845.94
2022-08-20T20:25:38.600Z,99845.91
2022-08-20T20:28:31.720Z,99849.11
2022-08-20T20:31:10.949Z,99840.41
2022-08-20T20:33:44.265Z,99841.19
2022-08-20T20:36:30.604Z,99840.65
2022-08-20T20:39:05.821Z,99848.65
2022-08-20T20:41:37.523Z,99844.96
2022-08-20T20:44:36.918Z,99834.14
2022-08-20T20:47:18.573Z,99823.81
2022-08-20T20:50:10.536Z,99825.53
2022-08-20T20:52:55.801Z,99825.04
2022-08-20T20:55:30.566Z,99832.05
2022-08-20T20:58:02.550Z,99821.95
2022-08-20T21:00:34.534Z,99825.92
2022-08-20T21:03:04.031Z,99816.80
2022-08-20T21:05:33.932Z,99816.23
2022-08-20T21:08:06.121Z,99815.58
2022-08-20T21:10:38.731Z,99814.70
2022-08-20T21:13:10.234Z,99816.82
2022-08-20T21:15:41.059Z,99822.95
2022-08-20T21:18:09.690Z,99826.18
2022-08-20T21:20:38.282Z,99830.66
2022-08-20T21:23:06.815Z,99826.95
2022-08-20T21:25:37.376Z,99831.54
2022-08-20T21:28:05.844Z,99836.38
2022-08-20T21:30:34.379Z,99839.45
2022-08-20T21:33:02.696Z,99837.59
2022-08-20T21:35:31.191Z,99834.72
2022-08-20T21:37:59.533Z,99834.38
2022-08-20T21:40:28.327Z,99836.75
2022-08-20T21:42:57.425Z,99841.65
2022-08-20T21:45:28.368Z,99839.31
2022-08-20T21:47:58.534Z,99831.63
2022-08-20T21:50:27.372Z,99827.43
2022-08-20T21:52:59.991Z,99832.95
2022-08-20T21:55:39.208Z,99839.13
2022-08-20T21:58:10.088Z,99838.23
2022-08-20T22:00:52.891Z,99839.17
2022-08-20T22:03:33.070Z,99838.62
2022-08-20T22:06:04.915Z,99836.40
2022-08-20T22:08:33.653Z,99836.30
2022-08-20T22:11:03.141Z,99837.52
2022-08-20T22:13:33.855Z,99843.11
2022-08-20T22:16:07.969Z,99850.73
2022-08-20T22:18:37.489Z,99854.20
2022-08-20T22:21:10.116Z,99847.64
2022-08-20T22:23:40.274Z,99847.05
2022-08-20T22:26:09.200Z,99846.66
2022-08-20T22:28:38.160Z,99838.58
2022-08-20T22:31:07.702Z,99834.81
2022-08-20T22:33:36.763Z,99830.02
2022-08-20T22:36:06.314Z,99822.88
2022-08-20T22:38:34.778Z,99816.58
2022-08-20T22:41:08.976Z,99812.84
2022-08-20T22:43:46.267Z,99808.16
2022-08-20T22:46:30.588Z,99811.27
2022-08-20T22:48:59.656Z,99813.48
2022-08-20T22:51:35.078Z,99818.15
2022-08-20T22:54:08.647Z,99817.16
2022-08-20T22:56:37.308Z,99826.05
2022-08-20T22:59:06.043Z,99827.60
2022-08-20T23:01:34.612Z,99828.50
2022-08-20T23:04:34.959Z,99826.73
2022-08-20T23:07:10.870Z,99821.73
2022-08-20T23:09:42.553Z,99820.25
2022-08-20T23:12:11.271Z,99819.61
2022-08-20T23:14:39.650Z,99818.83
2022-08-20T23:17:13.758Z,99821.85
2022-08-20T23:19:45.699Z,99818.73
2022-08-20T23:22:14.308Z,99821.20
2022-08-20T23:24:43.199Z,99822.02
2022-08-20T23:27:16.216Z,99818.49
2022-08-20T23:29:44.779Z,99814.08
2022-08-20T23:32:13.925Z,99815.02
2022-08-20T23:34:42.407Z,99816.78
2022-08-20T23:37:11.911Z,99815.14
2022-08-20T23:39:40.371Z,99817.84
2022-08-20T23:42:09.035Z,99818.98
2022-08-20T23:44:37.391Z,99820.70
2022-08-20T23:47:06.426Z,99825.69
2022-08-20T23:49:35.391Z,99829.50
2022-08-20T23:52:04.081Z,99829.67
2022-08-20T23:54:32.936Z,99822.70
2022-08-20T23:57:01.317Z,99820.89
2022-08-20T23:59:36.796Z,99804.60
